SWA43 KCLE-KMCO
Flight info
| Callsign | SWA43 |
|---|---|
| Flight time | N/A |
| Altitude | 36000 |
| Route | CAVVS5 APE Q149 BURGG DCT IRQ DCT WHYYT GRNCH5 |
| Aircraft | B738/M-SDE2E3FGHIRWXY/LB1 |
Departure
| Time | N/A |
|---|---|
| Airport | Cleveland Hopkins International Airport (KCLE) |
Arrival
| Time | 2026-04-24 03:39 |
|---|---|
| Airport | Orlando International Airport (KMCO) |
| Time | Latitude | Longitude | Altitude | Speed | Heading |
|---|---|---|---|---|---|
| 2026-04-24 02:12 | 37.88607 | -82.52047 | 29693 ft | 451 kts | 141° |
| 2026-04-24 02:12 | 37.86190 | -82.49635 | 29633 ft | 436 kts | 144° |
| 2026-04-24 02:12 | 37.83753 | -82.47379 | 29625 ft | 435 kts | 145° |
| 2026-04-24 02:13 | 37.78666 | -82.42934 | 29823 ft | 455 kts | 147° |
| 2026-04-24 02:13 | 37.76053 | -82.40742 | 30088 ft | 459 kts | 148° |
| 2026-04-24 02:13 | 37.73357 | -82.38531 | 30329 ft | 465 kts | 148° |
| 2026-04-24 02:14 | 37.70613 | -82.36335 | 30598 ft | 469 kts | 149° |
| 2026-04-24 02:14 | 37.67841 | -82.34168 | 31070 ft | 468 kts | 149° |
| 2026-04-24 02:14 | 37.65057 | -82.32040 | 31506 ft | 468 kts | 150° |
| 2026-04-24 02:14 | 37.62250 | -82.29945 | 31864 ft | 470 kts | 150° |
| 2026-04-24 02:15 | 37.59405 | -82.27882 | 32162 ft | 473 kts | 152° |
| 2026-04-24 02:15 | 37.56451 | -82.26029 | 32462 ft | 475 kts | 158° |
| 2026-04-24 02:15 | 37.53350 | -82.24609 | 32834 ft | 474 kts | 165° |
| 2026-04-24 02:15 | 37.50167 | -82.23624 | 33326 ft | 470 kts | 171° |
| 2026-04-24 02:16 | 37.46953 | -82.22955 | 33839 ft | 466 kts | 175° |
| 2026-04-24 02:16 | 37.43744 | -82.22476 | 34277 ft | 463 kts | 176° |
| 2026-04-24 02:16 | 37.40583 | -82.22096 | 34664 ft | 461 kts | 177° |
| 2026-04-24 02:16 | 37.37387 | -82.21741 | 34984 ft | 461 kts | 178° |
| 2026-04-24 02:17 | 37.30963 | -82.21009 | 34985 ft | 463 kts | 177° |
| 2026-04-24 02:17 | 37.24563 | -82.20223 | 34998 ft | 463 kts | 177° |
| 2026-04-24 02:18 | 37.21412 | -82.19821 | 35605 ft | 450 kts | 177° |
| 2026-04-24 02:18 | 37.18266 | -82.19435 | 35395 ft | 462 kts | 178° |
| 2026-04-24 02:18 | 37.15036 | -82.19126 | 35120 ft | 467 kts | 178° |
| 2026-04-24 02:18 | 37.11815 | -82.18771 | 35193 ft | 460 kts | 178° |
| 2026-04-24 02:19 | 37.08704 | -82.18444 | 36027 ft | 439 kts | 179° |
| 2026-04-24 02:19 | 37.05628 | -82.18122 | 35998 ft | 449 kts | 177° |
| 2026-04-24 02:19 | 36.99328 | -82.17193 | 36029 ft | 461 kts | 176° |
| 2026-04-24 02:20 | 36.94017 | -82.16394 | 36018 ft | 462 kts | 176° |
| 2026-04-24 02:20 | 36.87674 | -82.15522 | 36029 ft | 455 kts | 177° |
| 2026-04-24 02:21 | 36.81383 | -82.14715 | 36061 ft | 455 kts | 177° |
| 2026-04-24 02:21 | 36.75078 | -82.13924 | 36074 ft | 456 kts | 177° |
| 2026-04-24 02:22 | 36.68766 | -82.13131 | 36070 ft | 456 kts | 177° |
| 2026-04-24 02:22 | 36.62444 | -82.12336 | 36072 ft | 457 kts | 177° |
| 2026-04-24 02:23 | 36.56119 | -82.11540 | 36019 ft | 457 kts | 177° |
| 2026-04-24 02:23 | 36.49793 | -82.10746 | 36030 ft | 457 kts | 177° |
| 2026-04-24 02:24 | 36.43458 | -82.09951 | 36019 ft | 457 kts | 176° |
| 2026-04-24 02:24 | 36.37119 | -82.09158 | 36025 ft | 457 kts | 176° |
| 2026-04-24 02:25 | 36.30781 | -82.08366 | 36019 ft | 458 kts | 176° |
| 2026-04-24 02:25 | 36.24447 | -82.07576 | 36013 ft | 457 kts | 176° |
| 2026-04-24 02:26 | 36.18107 | -82.06786 | 36006 ft | 457 kts | 176° |
| 2026-04-24 02:26 | 36.11777 | -82.05998 | 36018 ft | 457 kts | 176° |
| 2026-04-24 02:27 | 36.05486 | -82.05217 | 36008 ft | 457 kts | 176° |
| 2026-04-24 02:27 | 35.99157 | -82.04432 | 36010 ft | 457 kts | 176° |
| 2026-04-24 02:28 | 35.92829 | -82.03649 | 36011 ft | 457 kts | 176° |
| 2026-04-24 02:28 | 35.86509 | -82.02868 | 36016 ft | 456 kts | 176° |
| 2026-04-24 02:29 | 35.80186 | -82.02185 | 36012 ft | 455 kts | 181° |
| 2026-04-24 02:29 | 35.73821 | -82.02307 | 36007 ft | 454 kts | 184° |
| 2026-04-24 02:30 | 35.67515 | -82.02604 | 36030 ft | 454 kts | 184° |
| 2026-04-24 02:30 | 35.61201 | -82.02854 | 36031 ft | 454 kts | 184° |
| 2026-04-24 02:31 | 35.54929 | -82.03053 | 36046 ft | 454 kts | 184° |
| 2026-04-24 02:31 | 35.48567 | -82.03233 | 36044 ft | 454 kts | 183° |
| 2026-04-24 02:32 | 35.42251 | -82.03410 | 36056 ft | 454 kts | 183° |
| 2026-04-24 02:32 | 35.35932 | -82.03588 | 36053 ft | 454 kts | 183° |
| 2026-04-24 02:33 | 35.29652 | -82.03765 | 36040 ft | 455 kts | 183° |
| 2026-04-24 02:33 | 35.23313 | -82.03945 | 36019 ft | 455 kts | 183° |
| 2026-04-24 02:34 | 35.16981 | -82.04124 | 36015 ft | 455 kts | 183° |
| 2026-04-24 02:34 | 35.10654 | -82.04302 | 36025 ft | 455 kts | 183° |
| 2026-04-24 02:35 | 35.04318 | -82.04480 | 36035 ft | 456 kts | 183° |
| 2026-04-24 02:35 | 34.97974 | -82.04659 | 36039 ft | 456 kts | 183° |
| 2026-04-24 02:36 | 34.91630 | -82.04837 | 36046 ft | 456 kts | 183° |
| 2026-04-24 02:36 | 34.85287 | -82.05014 | 36045 ft | 456 kts | 183° |
| 2026-04-24 02:37 | 34.78938 | -82.05192 | 36037 ft | 456 kts | 183° |
| 2026-04-24 02:37 | 34.72586 | -82.05369 | 36026 ft | 456 kts | 183° |
| 2026-04-24 02:38 | 34.66232 | -82.05547 | 36032 ft | 457 kts | 183° |
| 2026-04-24 02:38 | 34.59876 | -82.05724 | 36041 ft | 457 kts | 183° |
| 2026-04-24 02:39 | 34.53513 | -82.05900 | 36045 ft | 457 kts | 183° |
| 2026-04-24 02:39 | 34.47149 | -82.06077 | 36040 ft | 458 kts | 182° |
| 2026-04-24 02:40 | 34.40782 | -82.06253 | 36042 ft | 458 kts | 182° |
| 2026-04-24 02:40 | 34.34415 | -82.06429 | 36050 ft | 458 kts | 182° |
| 2026-04-24 02:41 | 34.28038 | -82.06605 | 36055 ft | 458 kts | 182° |
| 2026-04-24 02:41 | 34.21667 | -82.06781 | 36051 ft | 458 kts | 182° |
| 2026-04-24 02:42 | 34.15291 | -82.06957 | 36052 ft | 458 kts | 182° |
| 2026-04-24 02:42 | 34.08919 | -82.07132 | 36045 ft | 458 kts | 182° |
| 2026-04-24 02:43 | 34.02544 | -82.07307 | 36037 ft | 458 kts | 182° |
| 2026-04-24 02:43 | 33.96173 | -82.07482 | 36027 ft | 458 kts | 182° |
| 2026-04-24 02:44 | 33.89799 | -82.07657 | 36022 ft | 458 kts | 182° |
| 2026-04-24 02:44 | 33.83427 | -82.07831 | 36020 ft | 458 kts | 182° |
| 2026-04-24 02:45 | 33.77056 | -82.08005 | 36022 ft | 458 kts | 182° |
| 2026-04-24 02:45 | 33.70679 | -82.08179 | 36037 ft | 458 kts | 182° |
| 2026-04-24 02:46 | 33.64306 | -82.08352 | 36043 ft | 458 kts | 182° |
| 2026-04-24 02:46 | 33.57936 | -82.08525 | 36050 ft | 458 kts | 182° |
| 2026-04-24 02:47 | 33.51559 | -82.08698 | 36057 ft | 458 kts | 182° |
| 2026-04-24 02:47 | 33.45226 | -82.08870 | 36055 ft | 458 kts | 182° |
| 2026-04-24 02:48 | 33.38853 | -82.09042 | 36055 ft | 458 kts | 182° |
| 2026-04-24 02:48 | 33.32478 | -82.09215 | 36028 ft | 458 kts | 182° |
| 2026-04-24 02:49 | 33.26109 | -82.09386 | 36024 ft | 457 kts | 182° |
| 2026-04-24 02:49 | 33.19749 | -82.09558 | 36023 ft | 457 kts | 182° |
| 2026-04-24 02:50 | 33.13386 | -82.09729 | 36020 ft | 457 kts | 182° |
| 2026-04-24 02:50 | 33.07024 | -82.09900 | 36017 ft | 457 kts | 182° |
| 2026-04-24 02:51 | 33.00736 | -82.10068 | 35477 ft | 447 kts | 182° |
| 2026-04-24 02:51 | 32.97612 | -82.10151 | 34767 ft | 451 kts | 182° |
| 2026-04-24 02:51 | 32.94459 | -82.10236 | 33983 ft | 456 kts | 182° |
| 2026-04-24 02:52 | 32.91273 | -82.10322 | 33126 ft | 460 kts | 182° |
| 2026-04-24 02:52 | 32.88063 | -82.10408 | 32336 ft | 462 kts | 182° |
| 2026-04-24 02:52 | 32.84847 | -82.10494 | 31591 ft | 463 kts | 182° |
| 2026-04-24 02:52 | 32.81629 | -82.10580 | 30841 ft | 463 kts | 182° |
| 2026-04-24 02:53 | 32.79499 | -82.10636 | 30499 ft | 460 kts | 182° |
| 2026-04-24 02:53 | 32.75234 | -82.10750 | 30299 ft | 460 kts | 182° |
| 2026-04-24 02:53 | 32.72019 | -82.10836 | 30189 ft | 465 kts | 182° |
| 2026-04-24 02:53 | 32.68760 | -82.10923 | 30093 ft | 469 kts | 182° |
| 2026-04-24 02:54 | 32.62278 | -82.11095 | 30045 ft | 464 kts | 182° |
| 2026-04-24 02:54 | 32.55813 | -82.11267 | 30062 ft | 465 kts | 182° |
| 2026-04-24 02:55 | 32.49334 | -82.11439 | 30074 ft | 466 kts | 182° |
| 2026-04-24 02:55 | 32.42897 | -82.11609 | 30083 ft | 466 kts | 182° |
| 2026-04-24 02:56 | 32.36413 | -82.11781 | 30077 ft | 466 kts | 182° |
| 2026-04-24 02:56 | 32.29925 | -82.11952 | 30057 ft | 466 kts | 182° |
| 2026-04-24 02:57 | 32.23451 | -82.12123 | 30074 ft | 465 kts | 182° |
| 2026-04-24 02:57 | 32.16983 | -82.12293 | 30088 ft | 465 kts | 182° |
| 2026-04-24 02:58 | 32.10523 | -82.12463 | 30092 ft | 464 kts | 182° |
| 2026-04-24 02:58 | 32.04068 | -82.12632 | 30091 ft | 464 kts | 182° |
| 2026-04-24 02:59 | 31.97619 | -82.12802 | 30093 ft | 463 kts | 182° |
| 2026-04-24 02:59 | 31.91171 | -82.12970 | 30081 ft | 463 kts | 182° |
| 2026-04-24 03:00 | 31.84723 | -82.13139 | 30072 ft | 463 kts | 182° |
| 2026-04-24 03:00 | 31.78280 | -82.13307 | 30063 ft | 463 kts | 182° |
| 2026-04-24 03:01 | 31.72881 | -82.13447 | 30053 ft | 463 kts | 182° |
| 2026-04-24 03:01 | 31.66475 | -82.13615 | 30047 ft | 463 kts | 182° |
| 2026-04-24 03:02 | 31.60214 | -82.13776 | 30065 ft | 437 kts | 182° |
| 2026-04-24 03:02 | 31.57184 | -82.13854 | 30332 ft | 434 kts | 182° |
| 2026-04-24 03:02 | 31.54126 | -82.13934 | 30039 ft | 433 kts | 182° |
| 2026-04-24 03:03 | 31.48135 | -82.14091 | 30086 ft | 435 kts | 182° |
| 2026-04-24 03:03 | 31.42062 | -82.14250 | 30084 ft | 437 kts | 182° |
| 2026-04-24 03:04 | 31.36007 | -82.14406 | 30025 ft | 439 kts | 182° |
| 2026-04-24 03:04 | 31.32927 | -82.14485 | 29628 ft | 442 kts | 182° |
| 2026-04-24 03:04 | 31.29860 | -82.14564 | 28829 ft | 442 kts | 182° |
| 2026-04-24 03:05 | 31.26787 | -82.14643 | 28068 ft | 442 kts | 182° |
| 2026-04-24 03:05 | 31.23714 | -82.14722 | 27304 ft | 442 kts | 181° |
| 2026-04-24 03:05 | 31.20652 | -82.14801 | 26704 ft | 438 kts | 181° |
| 2026-04-24 03:05 | 31.17627 | -82.14879 | 26126 ft | 433 kts | 181° |
| 2026-04-24 03:06 | 31.14623 | -82.14957 | 25585 ft | 429 kts | 181° |
| 2026-04-24 03:06 | 31.11655 | -82.15033 | 25041 ft | 425 kts | 181° |
| 2026-04-24 03:06 | 31.08710 | -82.15109 | 24506 ft | 421 kts | 181° |
| 2026-04-24 03:06 | 31.05787 | -82.15184 | 24300 ft | 422 kts | 181° |
| 2026-04-24 03:07 | 31.02835 | -82.15260 | 24199 ft | 424 kts | 181° |
| 2026-04-24 03:07 | 30.99903 | -82.15335 | 24146 ft | 419 kts | 181° |
| 2026-04-24 03:07 | 30.96992 | -82.15410 | 24147 ft | 418 kts | 181° |
| 2026-04-24 03:07 | 30.94079 | -82.15485 | 24166 ft | 420 kts | 181° |
| 2026-04-24 03:08 | 30.91160 | -82.15560 | 24159 ft | 420 kts | 181° |
| 2026-04-24 03:08 | 30.85330 | -82.15709 | 24158 ft | 419 kts | 181° |
| 2026-04-24 03:08 | 30.82416 | -82.15783 | 24174 ft | 418 kts | 181° |
| 2026-04-24 03:09 | 30.79508 | -82.15857 | 24177 ft | 418 kts | 181° |
| 2026-04-24 03:09 | 30.76596 | -82.15932 | 24175 ft | 418 kts | 181° |
| 2026-04-24 03:09 | 30.73686 | -82.16006 | 24174 ft | 419 kts | 181° |
| 2026-04-24 03:09 | 30.70770 | -82.16080 | 24183 ft | 419 kts | 182° |
| 2026-04-24 03:10 | 30.67885 | -82.16154 | 24183 ft | 419 kts | 181° |
| 2026-04-24 03:10 | 30.64975 | -82.16228 | 24186 ft | 420 kts | 181° |
| 2026-04-24 03:10 | 30.62048 | -82.16303 | 24187 ft | 421 kts | 181° |
| 2026-04-24 03:10 | 30.59122 | -82.16377 | 24184 ft | 421 kts | 182° |
| 2026-04-24 03:11 | 30.56188 | -82.16452 | 24177 ft | 422 kts | 182° |
| 2026-04-24 03:11 | 30.53253 | -82.16527 | 24173 ft | 422 kts | 181° |
| 2026-04-24 03:11 | 30.50316 | -82.16601 | 24166 ft | 422 kts | 181° |
| 2026-04-24 03:11 | 30.47381 | -82.16676 | 24175 ft | 422 kts | 181° |
| 2026-04-24 03:12 | 30.44447 | -82.16750 | 24172 ft | 422 kts | 181° |
| 2026-04-24 03:12 | 30.41514 | -82.16825 | 24170 ft | 422 kts | 181° |
| 2026-04-24 03:12 | 30.38617 | -82.16898 | 24162 ft | 421 kts | 181° |
| 2026-04-24 03:12 | 30.35687 | -82.16972 | 24161 ft | 421 kts | 181° |
| 2026-04-24 03:13 | 30.32720 | -82.17047 | 24165 ft | 421 kts | 181° |
| 2026-04-24 03:13 | 30.29831 | -82.17120 | 24164 ft | 421 kts | 181° |
| 2026-04-24 03:13 | 30.26899 | -82.17195 | 24155 ft | 421 kts | 181° |
| 2026-04-24 03:13 | 30.23976 | -82.17268 | 24158 ft | 421 kts | 181° |
| 2026-04-24 03:14 | 30.21045 | -82.17342 | 24148 ft | 421 kts | 181° |
| 2026-04-24 03:14 | 30.18120 | -82.17416 | 24147 ft | 421 kts | 181° |
| 2026-04-24 03:14 | 30.15195 | -82.17491 | 24137 ft | 421 kts | 182° |
| 2026-04-24 03:14 | 30.12271 | -82.17566 | 24140 ft | 420 kts | 182° |
| 2026-04-24 03:15 | 30.09342 | -82.17639 | 24139 ft | 420 kts | 182° |
| 2026-04-24 03:15 | 30.06418 | -82.17712 | 24145 ft | 420 kts | 182° |
| 2026-04-24 03:15 | 30.03493 | -82.17785 | 24137 ft | 420 kts | 182° |
| 2026-04-24 03:15 | 30.00570 | -82.17859 | 24142 ft | 420 kts | 182° |
| 2026-04-24 03:16 | 29.97650 | -82.17932 | 24136 ft | 420 kts | 182° |
| 2026-04-24 03:16 | 29.94724 | -82.18006 | 24135 ft | 420 kts | 182° |
| 2026-04-24 03:16 | 29.91801 | -82.18039 | 24118 ft | 420 kts | 179° |
| 2026-04-24 03:16 | 29.88931 | -82.17686 | 23891 ft | 411 kts | 172° |
| 2026-04-24 03:17 | 29.86118 | -82.17120 | 23307 ft | 410 kts | 171° |
| 2026-04-24 03:17 | 29.83323 | -82.16512 | 22584 ft | 409 kts | 171° |
| 2026-04-24 03:17 | 29.80523 | -82.15904 | 21902 ft | 408 kts | 171° |
| 2026-04-24 03:17 | 29.77743 | -82.15314 | 21355 ft | 404 kts | 171° |
| 2026-04-24 03:18 | 29.74987 | -82.14746 | 20824 ft | 400 kts | 172° |
| 2026-04-24 03:18 | 29.72263 | -82.14195 | 20293 ft | 396 kts | 172° |
| 2026-04-24 03:18 | 29.69558 | -82.13655 | 19754 ft | 393 kts | 172° |
| 2026-04-24 03:18 | 29.66879 | -82.13122 | 19228 ft | 390 kts | 172° |
| 2026-04-24 03:19 | 29.64215 | -82.12594 | 18719 ft | 386 kts | 172° |
| 2026-04-24 03:19 | 29.61575 | -82.12071 | 18190 ft | 383 kts | 172° |
| 2026-04-24 03:19 | 29.58957 | -82.11552 | 17624 ft | 380 kts | 172° |
| 2026-04-24 03:19 | 29.56355 | -82.11035 | 17246 ft | 380 kts | 172° |
| 2026-04-24 03:20 | 29.53737 | -82.10517 | 17127 ft | 382 kts | 172° |
| 2026-04-24 03:20 | 29.51130 | -82.10000 | 17047 ft | 377 kts | 172° |
| 2026-04-24 03:20 | 29.48547 | -82.09489 | 17051 ft | 377 kts | 172° |
| 2026-04-24 03:20 | 29.45962 | -82.08977 | 17047 ft | 375 kts | 172° |
| 2026-04-24 03:21 | 29.43428 | -82.08476 | 16902 ft | 365 kts | 172° |
| 2026-04-24 03:21 | 29.40943 | -82.07984 | 16557 ft | 359 kts | 172° |
| 2026-04-24 03:21 | 29.38491 | -82.07501 | 16081 ft | 357 kts | 172° |
| 2026-04-24 03:21 | 29.36041 | -82.07018 | 15597 ft | 358 kts | 172° |
| 2026-04-24 03:22 | 29.33591 | -82.06535 | 15121 ft | 356 kts | 172° |
| 2026-04-24 03:22 | 29.31159 | -82.06016 | 14649 ft | 355 kts | 167° |
| 2026-04-24 03:22 | 29.28901 | -82.04978 | 14182 ft | 355 kts | 153° |
| 2026-04-24 03:22 | 29.26750 | -82.03609 | 13706 ft | 353 kts | 152° |
| 2026-04-24 03:23 | 29.24625 | -82.02221 | 13182 ft | 352 kts | 152° |
| 2026-04-24 03:23 | 29.22485 | -82.00831 | 12683 ft | 355 kts | 152° |
| 2026-04-24 03:23 | 29.20309 | -81.99435 | 12190 ft | 366 kts | 152° |
| 2026-04-24 03:23 | 29.18004 | -81.97973 | 11724 ft | 399 kts | 152° |
| 2026-04-24 03:24 | 29.15530 | -81.96411 | 11276 ft | 410 kts | 152° |
| 2026-04-24 03:24 | 29.13131 | -81.94900 | 11116 ft | 375 kts | 152° |
| 2026-04-24 03:24 | 29.10935 | -81.93519 | 11091 ft | 348 kts | 152° |
| 2026-04-24 03:24 | 29.08859 | -81.92217 | 11084 ft | 337 kts | 152° |
| 2026-04-24 03:25 | 29.06844 | -81.90918 | 11072 ft | 327 kts | 148° |
| 2026-04-24 03:25 | 29.05107 | -81.89296 | 10910 ft | 318 kts | 136° |
| 2026-04-24 03:25 | 29.03558 | -81.87543 | 10713 ft | 310 kts | 135° |
| 2026-04-24 03:25 | 29.02046 | -81.85831 | 10513 ft | 302 kts | 136° |
| 2026-04-24 03:26 | 29.00564 | -81.84203 | 10326 ft | 297 kts | 137° |
| 2026-04-24 03:26 | 28.99071 | -81.82590 | 10132 ft | 295 kts | 137° |
| 2026-04-24 03:26 | 28.97607 | -81.80949 | 9949 ft | 295 kts | 131° |
| 2026-04-24 03:26 | 28.96328 | -81.79120 | 9713 ft | 295 kts | 127° |
| 2026-04-24 03:27 | 28.95115 | -81.77247 | 9453 ft | 291 kts | 126° |
| 2026-04-24 03:27 | 28.93920 | -81.75400 | 9189 ft | 287 kts | 127° |
| 2026-04-24 03:27 | 28.92729 | -81.73587 | 8932 ft | 283 kts | 127° |
| 2026-04-24 03:27 | 28.91545 | -81.71808 | 8677 ft | 280 kts | 127° |
| 2026-04-24 03:28 | 28.90368 | -81.70057 | 8420 ft | 277 kts | 128° |
| 2026-04-24 03:28 | 28.89312 | -81.68490 | 8198 ft | 274 kts | 128° |
| 2026-04-24 03:28 | 28.88154 | -81.66775 | 7946 ft | 271 kts | 128° |
| 2026-04-24 03:28 | 28.87021 | -81.65099 | 7627 ft | 272 kts | 128° |
| 2026-04-24 03:29 | 28.85865 | -81.63387 | 7267 ft | 272 kts | 128° |
| 2026-04-24 03:29 | 28.84719 | -81.61692 | 6897 ft | 267 kts | 128° |
| 2026-04-24 03:29 | 28.83595 | -81.60030 | 6534 ft | 262 kts | 128° |
| 2026-04-24 03:29 | 28.82493 | -81.58401 | 6183 ft | 257 kts | 128° |
| 2026-04-24 03:30 | 28.81434 | -81.56836 | 6108 ft | 240 kts | 128° |
| 2026-04-24 03:30 | 28.80435 | -81.55361 | 6088 ft | 232 kts | 128° |
| 2026-04-24 03:30 | 28.79462 | -81.53925 | 6098 ft | 231 kts | 128° |
| 2026-04-24 03:30 | 28.78526 | -81.52428 | 6101 ft | 232 kts | 123° |
| 2026-04-24 03:31 | 28.77655 | -81.50868 | 6111 ft | 235 kts | 122° |
| 2026-04-24 03:31 | 28.76781 | -81.49296 | 6110 ft | 235 kts | 122° |
| 2026-04-24 03:31 | 28.75898 | -81.47718 | 6107 ft | 236 kts | 123° |
| 2026-04-24 03:31 | 28.74992 | -81.46151 | 6076 ft | 238 kts | 125° |
| 2026-04-24 03:32 | 28.73994 | -81.44645 | 6055 ft | 238 kts | 130° |
| 2026-04-24 03:32 | 28.72872 | -81.43267 | 6027 ft | 236 kts | 136° |
| 2026-04-24 03:32 | 28.71649 | -81.42021 | 5907 ft | 235 kts | 139° |
| 2026-04-24 03:32 | 28.70550 | -81.40628 | 5606 ft | 239 kts | 125° |
| 2026-04-24 03:33 | 28.69684 | -81.38991 | 5245 ft | 244 kts | 118° |
| 2026-04-24 03:33 | 28.68904 | -81.37293 | 5088 ft | 235 kts | 117° |
| 2026-04-24 03:33 | 28.68331 | -81.35614 | 5098 ft | 225 kts | 100° |
| 2026-04-24 03:33 | 28.68167 | -81.33850 | 5106 ft | 225 kts | 96° |
| 2026-04-24 03:34 | 28.67609 | -81.32212 | 5100 ft | 227 kts | 134° |
| 2026-04-24 03:34 | 28.66235 | -81.31388 | 5096 ft | 229 kts | 174° |
| 2026-04-24 03:34 | 28.64645 | -81.31403 | 5103 ft | 228 kts | 184° |
| 2026-04-24 03:34 | 28.63146 | -81.31764 | 5091 ft | 212 kts | 197° |
| 2026-04-24 03:35 | 28.61764 | -81.32142 | 5073 ft | 198 kts | 189° |
| 2026-04-24 03:35 | 28.60410 | -81.32309 | 4976 ft | 198 kts | 183° |
| 2026-04-24 03:35 | 28.58991 | -81.32398 | 4438 ft | 205 kts | 184° |
| 2026-04-24 03:35 | 28.57576 | -81.32531 | 3941 ft | 202 kts | 182° |
| 2026-04-24 03:36 | 28.56159 | -81.32608 | 3335 ft | 205 kts | 180° |
| 2026-04-24 03:36 | 28.54736 | -81.32663 | 2739 ft | 204 kts | 180° |
| 2026-04-24 03:36 | 28.53349 | -81.32731 | 2159 ft | 192 kts | 180° |
| 2026-04-24 03:36 | 28.52083 | -81.32814 | 1787 ft | 172 kts | 179° |
| 2026-04-24 03:37 | 28.50937 | -81.32831 | 1560 ft | 158 kts | 175° |
| 2026-04-24 03:37 | 28.49957 | -81.32791 | 1193 ft | 152 kts | 173° |
| 2026-04-24 03:37 | 28.48932 | -81.32752 | 994 ft | 145 kts | 175° |
| 2026-04-24 03:37 | 28.47913 | -81.32728 | 841 ft | 148 kts | 176° |
| 2026-04-24 03:38 | 28.46879 | -81.32719 | 639 ft | 146 kts | 178° |
| 2026-04-24 03:38 | 28.45872 | -81.32711 | 444 ft | 143 kts | 178° |
| 2026-04-24 03:38 | 28.44876 | -81.32697 | 241 ft | 144 kts | 179° |
| 2026-04-24 03:38 | 28.43883 | -81.32699 | 119 ft | 140 kts | 178° |
| 2026-04-24 03:39 | 28.43082 | -81.32685 | 106 ft | 46 kts | 179° |
| 2026-04-24 03:39 | 28.43047 | -81.32685 | 106 ft | 4 kts | 179° |
| 2026-04-24 03:39 | 28.43030 | -81.32684 | 106 ft | 5 kts | 177° |
| 2026-04-24 03:39 | 28.42993 | -81.32682 | 107 ft | 8 kts | 177° |
| 2026-04-24 03:40 | 28.42925 | -81.32677 | 107 ft | 13 kts | 177° |
| 2026-04-24 03:40 | 28.42810 | -81.32670 | 105 ft | 20 kts | 181° |
| 2026-04-24 03:40 | 28.42661 | -81.32640 | 102 ft | 22 kts | 149° |
| 2026-04-24 03:40 | 28.42565 | -81.32503 | 105 ft | 22 kts | 121° |
| 2026-04-24 03:41 | 28.42491 | -81.32359 | 106 ft | 21 kts | 120° |
| 2026-04-24 03:41 | 28.42448 | -81.32276 | 108 ft | 2 kts | 120° |
| 2026-04-24 03:41 | 28.42443 | -81.32265 | 108 ft | 2 kts | 120° |
| 2026-04-24 03:41 | 28.42433 | -81.32245 | 109 ft | 2 kts | 120° |
| 2026-04-24 03:42 | 28.42423 | -81.32226 | 109 ft | 4 kts | 120° |
| 2026-04-24 03:42 | 28.42387 | -81.32156 | 110 ft | 16 kts | 121° |
| 2026-04-24 03:42 | 28.42339 | -81.32021 | 109 ft | 19 kts | 90° |
| 2026-04-24 03:42 | 28.42346 | -81.31870 | 107 ft | 19 kts | 90° |
| 2026-04-24 03:43 | 28.42350 | -81.31721 | 104 ft | 18 kts | 75° |
| 2026-04-24 03:43 | 28.42410 | -81.31663 | 104 ft | 11 kts | 30° |
| 2026-04-24 03:43 | 28.42483 | -81.31613 | 101 ft | 14 kts | 31° |
| 2026-04-24 03:43 | 28.42513 | -81.31588 | 100 ft | 4 kts | 46° |
| 2026-04-24 03:44 | 28.42527 | -81.31576 | 101 ft | 4 kts | 34° |
| 2026-04-24 03:44 | 28.42552 | -81.31557 | 101 ft | 4 kts | 33° |
| 2026-04-24 03:44 | 28.42560 | -81.31551 | 101 ft | 0 kts | 33° |
| 2026-04-24 03:45 | 28.42568 | -81.31545 | 101 ft | 0 kts | 33° |
| 2026-04-24 03:45 | 28.42571 | -81.31542 | 101 ft | 0 kts | 33° |
| 2026-04-24 03:46 | 28.45394 | -81.32695 | 356 ft | 143 kts | 178° |